ADDS METAR Data INFO
IDs: Format: Raw Decoded Include TAF

Data at: 1604 UTC 12 Dec 2017

K7BM 121553Z AUTO 27005KT 10SM CLR 07/M15 A3055 RMK AO2
K7BM 121530Z AUTO 29008KT 10SM CLR 06/M15 A3054 RMK AO2
K7BM 121512Z AUTO 32007KT 250V340 10SM CLR 06/M15 A3054 RMK AO2
K7BM 121454Z AUTO 31007G14KT 280V340 10SM CLR 05/M15 A3054 RMK AO2
K7BM 121430Z AUTO 31010G17KT 280V360 10SM CLR 05/M15 A3053 RMK AO2
K7BM 121412Z AUTO 33007G14KT 10SM CLR 05/M15 A3053 RMK AO2
K7BM 121354Z AUTO 30009G14KT 270V340 10SM CLR 05/M15 A3054 RMK AO2
K7BM 121330Z AUTO 31010G17KT 270V350 10SM CLR 05/M15 A3053 RMK AO2
K7BM 121312Z AUTO 32010G16KT 280V340 10SM CLR 05/M16 A3053 RMK AO2
K7BM 121254Z AUTO 31008G14KT 270V340 10SM CLR 05/M16 A3053 RMK AO2
K7BM 121230Z AUTO 33008G17KT 290V010 10SM CLR 05/M16 A3053 RMK AO2
K7BM 121212Z AUTO 30006KT 10SM CLR 04/M16 A3053 RMK AO2
K7BM 121154Z AUTO 32007G17KT 10SM CLR 04/M16 A3053 RMK AO2
K7BM 121130Z AUTO 31007KT 10SM CLR 04/M15 A3054 RMK AO2
K7BM 121112Z AUTO 34004KT 10SM CLR 03/M15 A3054 RMK AO2
K7BM 121054Z AUTO 30006KT 10SM CLR 04/M16 A3054 RMK AO2
K7BM 121030Z AUTO 32006KT 10SM CLR 05/M15 A3054 RMK AO2
K7BM 121012Z AUTO 33005KT 10SM CLR 04/M15 A3054 RMK AO2
K7BM 120954Z AUTO 36004KT 10SM CLR 04/M15 A3054 RMK AO2
K7BM 120930Z AUTO 30005KT 10SM CLR 05/M15 A3054 RMK AO2
K7BM 120912Z AUTO 32005KT 10SM CLR 05/M16 A3054 RMK AO2
K7BM 120849Z AUTO 29006KT 10SM CLR 05/M16 A3054 RMK AO2
K7BM 120831Z AUTO 31005KT 10SM CLR 04/M16 A3054 RMK AO2
K7BM 120813Z AUTO 25006KT 10SM CLR 04/M16 A3054 RMK AO2
K7BM 120754Z AUTO 29003KT 10SM CLR 04/M20 A3054 RMK AO2
K7BM 120730Z AUTO 00000KT 10SM CLR 04/M19 A3054 RMK AO2
K7BM 120712Z AUTO 00000KT 10SM CLR 04/M18 A3054 RMK AO2
K7BM 120653Z AUTO 15003KT 10SM CLR 04/M17 A3054 RMK AO2
K7BM 120629Z AUTO 14007KT 10SM CLR 03/M16 A3054 RMK AO2
K7BM 120611Z AUTO 15007KT 10SM CLR 03/M15 A3054 RMK AO2
K7BM 120552Z AUTO 00000KT 10SM CLR 05/M22 A3054 RMK AO2
K7BM 120529Z AUTO 12005KT 10SM CLR 03/M18 A3054 RMK AO2
K7BM 120511Z AUTO 26005KT 10SM CLR 04/M17 A3054 RMK AO2
K7BM 120453Z AUTO 17009KT 10SM CLR 03/M16 A3054 RMK AO2
K7BM 120429Z AUTO 14009KT 10SM CLR 04/M16 A3054 RMK AO2
K7BM 120412Z AUTO 13008KT 10SM CLR 05/M16 A3054 RMK AO2
K7BM 120353Z AUTO 16008KT 10SM CLR 05/M17 A3054 RMK AO2
K7BM 120330Z AUTO 26012G17KT 10SM CLR 05/M17 A3054 RMK AO2
K7BM 120312Z AUTO 26012G18KT 10SM CLR 04/M16 A3054 RMK AO2
K7BM 120254Z AUTO 27008KT 10SM CLR 04/M16 A3054 RMK AO2
K7BM 120230Z AUTO 27008KT 10SM CLR 04/M16 A3054 RMK AO2
K7BM 120212Z AUTO 33004KT 10SM CLR 04/M16 A3054 RMK AO2
K7BM 120154Z AUTO 30003KT 10SM CLR 05/M16 A3054 RMK AO2
K7BM 120130Z AUTO 33006KT 10SM CLR 05/M16 A3053 RMK AO2
K7BM 120112Z AUTO 26008KT 10SM CLR 06/M16 A3052 RMK AO2
K7BM 120054Z AUTO 31004KT 10SM CLR 05/M16 A3052 RMK AO2
K7BM 120030Z AUTO 34004KT 10SM CLR 05/M16 A3051 RMK AO2
K7BM 120012Z AUTO 34004G15KT 10SM CLR 06/M18 A3051 RMK AO2
K7BM 112354Z AUTO 26011G19KT 10SM CLR 07/M20 A3051 RMK AO2
K7BM 112330Z AUTO 32005KT 10SM CLR 07/M20 A3050 RMK AO2
K7BM 112312Z AUTO 34006KT 10SM CLR 07/M19 A3049 RMK AO2
K7BM 112254Z AUTO 36005KT 10SM CLR 08/M20 A3048 RMK AO2
K7BM 112230Z AUTO 33003KT 10SM CLR 09/M21 A3047 RMK AO2
K7BM 112212Z AUTO 26009G20KT 240V020 10SM CLR 10/M23 A3047 RMK AO2
K7BM 112154Z AUTO 30006G22KT 090V320 10SM CLR 10/M23 A3046 RMK AO2
K7BM 112130Z AUTO 26016G24KT 240V320 10SM CLR 10/M24 A3045 RMK AO2
K7BM 112112Z AUTO 28015G28KT 230V310 10SM CLR 10/M25 A3045 RMK AO2
K7BM 112053Z AUTO 26013G28KT 230V290 10SM CLR 10/M24 A3045 RMK AO2
K7BM 112030Z AUTO 26014G29KT 230V290 10SM CLR 11/M25 A3045 RMK AO2
K7BM 112012Z AUTO 25018G28KT 10SM CLR 11/M25 A3046 RMK AO2
K7BM 111953Z AUTO 28011G27KT 250V330 10SM CLR 10/M26 A3046 RMK AO2
K7BM 111929Z AUTO 31008G16KT 280V010 10SM CLR 11/M27 A3046 RMK AO2
K7BM 111912Z AUTO 32007G20KT 280V010 10SM CLR 11/M27 A3047 RMK AO2
K7BM 111852Z AUTO 26011G22KT 220V300 10SM CLR 11/M28 A3048 RMK AO2
K7BM 111830Z AUTO 26008KT 220V320 10SM CLR 10/M26 A3050 RMK AO2
K7BM 111812Z AUTO 00000KT 10SM CLR 10/M25 A3051 RMK AO2
K7BM 111754Z AUTO 18005KT 10SM CLR 10/M25 A3051 RMK AO2
K7BM 111730Z AUTO 00000KT 10SM CLR 08/M24 A3053 RMK AO2
K7BM 111712Z AUTO 00000KT 10SM CLR 08/M24 A3052 RMK AO2
K7BM 111654Z AUTO 00000KT 10SM CLR 06/M25 A3052 RMK AO2
K7BM 111630Z AUTO 00000KT 10SM CLR 07/M25 A3051 RMK AO2
K7BM 111612Z AUTO 25007G18KT 210V270 10SM CLR 09/M25 A3052 RMK AO2
K7BM 111554Z AUTO 31003KT 10SM CLR 07/M22 A3052 RMK AO2
K7BM 111530Z AUTO 34003KT 10SM CLR 06/M22 A3052 RMK AO2
K7BM 111512Z AUTO 31004KT 10SM CLR 05/M22 A3052 RMK AO2
K7BM 111454Z AUTO 00000KT 10SM CLR 05/M22 A3052 RMK AO2
K7BM 111430Z AUTO 29006KT 250V310 10SM CLR 05/M23 A3051 RMK AO2
K7BM 111412Z AUTO 30006KT 10SM CLR 04/M24 A3051 RMK AO2
K7BM 111354Z AUTO 34005KT 10SM CLR 04/M24 A3051 RMK AO2
K7BM 111330Z AUTO 29006KT 10SM CLR 05/M26 A3051 RMK AO2
K7BM 111312Z AUTO 27009KT 10SM CLR 05/M27 A3051 RMK AO2
K7BM 111254Z AUTO 30007G17KT 10SM CLR 05/M28 A3050 RMK AO2
K7BM 111230Z AUTO 31006G14KT 10SM CLR 05/M30 A3051 RMK AO2
K7BM 111212Z AUTO 27009G17KT 10SM CLR 05/M30 A3050 RMK AO2
K7BM 111153Z AUTO 27012G16KT 10SM CLR 04/M30 A3049 RMK AO2
K7BM 111130Z AUTO 26013G18KT 10SM CLR 05/M30 A3050 RMK AO2
K7BM 111112Z AUTO 27014G17KT 10SM CLR 05/M29 A3049 RMK AO2
K7BM 111054Z AUTO 26013G19KT 10SM CLR 05/M29 A3050 RMK AO2
K7BM 111030Z AUTO 27011G14KT 10SM CLR 05/M29 A3051 RMK AO2
K7BM 111012Z AUTO 29005KT 10SM CLR 05/M29 A3051 RMK AO2
K7BM 110953Z AUTO 27009KT 10SM CLR 05/M28 A3051 RMK AO2
K7BM 110929Z AUTO 24012G16KT 10SM CLR 05/M28 A3052 RMK AO2
K7BM 110912Z AUTO 22007KT 10SM CLR 03/M26 A3052 RMK AO2
K7BM 110853Z AUTO 00000KT 10SM CLR 04/M28 A3052 RMK AO2
K7BM 110830Z AUTO 33005G18KT 10SM CLR 05/M26 A3051 RMK AO2
K7BM 110812Z AUTO 32005KT 10SM CLR 04/M25 A3051 RMK AO2
K7BM 110752Z AUTO 31006KT 270V350 10SM CLR 04/M25 A3052 RMK AO2
K7BM 110729Z AUTO 30007KT 10SM CLR 04/M25 A3053 RMK AO2
K7BM 110712Z AUTO 29007KT 10SM CLR 04/M26 A3053 RMK AO2
K7BM 110653Z AUTO 26006KT 10SM CLR 04/M27 A3054 RMK AO2
K7BM 110630Z AUTO 27007KT 10SM CLR 05/M28 A3054 RMK AO2
K7BM 110612Z AUTO 25007KT 10SM CLR 04/M26 A3055 RMK AO2
K7BM 110552Z AUTO 26005KT 10SM CLR 04/M28 A3054 RMK AO2
K7BM 110529Z AUTO 25006KT 10SM CLR 04/M27 A3053 RMK AO2
K7BM 110511Z AUTO 28008G15KT 10SM CLR 04/M29 A3052 RMK AO2
K7BM 110454Z AUTO 27009KT 10SM CLR 04/M28 A3052 RMK AO2
K7BM 110430Z AUTO 27010KT 10SM CLR 04/M29 A3053 RMK AO2
K7BM 110412Z AUTO 27012G16KT 10SM CLR 04/M29 A3052 RMK AO2